Time;durP1;ratioP1;P1;durP2;ratioP2;P2;SDS_P1;SDS_P2;PMS_P1;PMS_P2;Temp;Humidity;BMP_temperature;BMP_pressure;BME280_temperature;BME280_humidity;BME280_pressure;Samples;Min_cycle;Max_cycle;Signal;HPM_P1;HPM_P2
2022/08/22 03:01:45;;;;;;;14.60;8.05;;;15.10;99.90;;;;;;5338569;23;20052;-88
2022/08/22 03:04:23;;;;;;;11.02;7.40;;;15.10;99.90;;;;;;4904738;29;20064;-86
2022/08/22 03:07:00;;;;;;;13.45;7.03;;;15.20;99.90;;;;;;4905103;29;20044;-87
2022/08/22 03:09:44;;;;;;;13.48;8.27;;;15.20;99.90;;;;;;4888315;29;20095;-87
2022/08/22 03:12:38;;;;;;;13.38;7.20;;;15.20;99.90;;;;;;4905226;29;20092;-87
2022/08/22 03:15:16;;;;;;;13.20;7.55;;;15.20;99.90;;;;;;4904441;29;20056;-88
2022/08/22 03:17:48;;;;;;;11.82;7.28;;;15.20;99.90;;;;;;4890303;29;20039;-87
2022/08/22 03:20:39;;;;;;;17.15;8.48;;;15.20;99.90;;;;;;4886634;29;20132;-86
2022/08/22 03:23:28;;;;;;;9.98;6.95;;;15.20;99.90;;;;;;4903506;29;20053;-85
2022/08/22 03:26:06;;;;;;;12.70;7.22;;;15.20;99.90;;;;;;4903667;29;20044;-87
2022/08/22 03:28:51;;;;;;;13.73;7.65;;;15.20;99.90;;;;;;4904055;29;20067;-87
2022/08/22 03:31:24;;;;;;;10.95;7.85;;;15.20;99.90;;;;;;4922184;29;20040;-87
2022/08/22 03:34:21;;;;;;;14.55;7.22;;;15.10;99.90;;;;;;4888328;29;20051;-87
2022/08/22 03:37:05;;;;;;;14.60;7.47;;;15.10;99.90;;;;;;4905094;29;20040;-86
2022/08/22 03:39:58;;;;;;;11.02;6.95;;;15.10;99.90;;;;;;4920556;29;20131;-86
2022/08/22 03:42:30;;;;;;;15.30;7.68;;;15.00;99.90;;;;;;4921573;29;20052;-85
2022/08/22 03:45:24;;;;;;;13.23;7.13;;;15.00;99.90;;;;;;4903937;29;20048;-88
2022/08/22 03:48:02;;;;;;;11.13;7.10;;;15.00;99.90;;;;;;4887765;29;20048;-87
2022/08/22 03:50:49;;;;;;;13.80;6.40;;;14.90;99.90;;;;;;4888591;29;20044;-86
2022/08/22 03:53:51;;;;;;;10.23;6.47;;;14.90;99.90;;;;;;4888218;29;20044;-89
2022/08/22 03:56:20;;;;;;;12.40;6.90;;;14.90;99.90;;;;;;4889809;29;20079;-86
2022/08/22 03:58:48;;;;;;;13.60;7.22;;;14.90;99.90;;;;;;4903435;29;20087;-88
2022/08/22 04:01:32;;;;;;;14.75;8.88;;;14.90;99.90;;;;;;4921599;29;20071;-86
2022/08/22 04:04:11;;;;;;;11.73;7.50;;;14.90;99.90;;;;;;4920255;29;20504;-86
2022/08/22 04:07:08;;;;;;;12.25;7.07;;;14.90;99.90;;;;;;4920273;29;20512;-86
2022/08/22 04:10:05;;;;;;;10.65;7.15;;;14.80;99.90;;;;;;4888634;29;20048;-85
2022/08/22 04:12:56;;;;;;;19.02;8.85;;;14.80;99.90;;;;;;4902539;29;20116;-87
2022/08/22 04:15:40;;;;;;;15.50;9.52;;;14.90;99.90;;;;;;4921607;29;20594;-87
2022/08/22 04:18:08;;;;;;;17.38;9.48;;;14.80;99.90;;;;;;4903977;29;20103;-87
2022/08/22 04:20:56;;;;;;;14.07;8.70;;;14.80;99.90;;;;;;4888678;29;20123;-87
2022/08/22 04:23:46;;;;;;;14.85;8.98;;;14.80;99.90;;;;;;4887269;29;20051;-87
2022/08/22 04:26:32;;;;;;;14.25;8.65;;;14.80;99.90;;;;;;4903750;29;20083;-87
2022/08/22 04:29:01;;;;;;;;;;;14.70;99.90;;;;;;4904160;29;20044;-87
2022/08/22 04:31:40;;;;;;;15.13;8.18;;;14.70;99.90;;;;;;4887760;29;19919;-86
2022/08/22 04:34:20;;;;;;;15.32;8.10;;;14.70;99.90;;;;;;4889661;29;20107;-87
2022/08/22 04:37:09;;;;;;;17.58;9.20;;;14.70;99.90;;;;;;4902989;29;20457;-86
2022/08/22 04:39:48;;;;;;;9.85;7.05;;;14.70;99.90;;;;;;4888839;29;20052;-87
2022/08/22 04:42:17;;;;;;;9.55;6.30;;;14.70;99.90;;;;;;4888304;29;20404;-87
2022/08/22 04:44:56;;;;;;;9.25;6.47;;;14.60;99.90;;;;;;4903259;29;20072;-86
2022/08/22 04:47:35;;;;;;;11.07;5.93;;;14.50;99.90;;;;;;4921747;29;20040;-87
2022/08/22 04:50:29;;;;;;;9.20;6.35;;;14.50;99.90;;;;;;4920521;29;20487;-86
2022/08/22 04:53:07;;;;;;;9.40;6.15;;;14.50;99.90;;;;;;4904587;29;20028;-85
2022/08/22 04:55:50;;;;;;;10.63;5.82;;;14.40;99.90;;;;;;4902631;29;20076;-86
2022/08/22 04:58:46;;;;;;;7.43;5.20;;;14.30;99.90;;;;;;4902545;29;20048;-86
2022/08/22 05:01:15;;;;;;;13.13;7.47;;;14.30;99.90;;;;;;4903834;29;20071;-85
2022/08/22 05:03:59;;;;;;;9.20;6.32;;;14.30;99.90;;;;;;4921860;29;20476;-84
2022/08/22 05:06:29;;;;;;;9.02;5.75;;;14.30;99.90;;;;;;4889072;29;20068;-86
2022/08/22 05:08:59;;;;;;;14.38;8.07;;;14.30;99.90;;;;;;4919504;29;20051;-86
2022/08/22 05:11:26;;;;;;;11.63;7.32;;;14.30;99.90;;;;;;4903027;29;20052;-86
2022/08/22 05:13:59;;;;;;;17.33;8.15;;;14.30;99.90;;;;;;4919601;29;20123;-83
2022/08/22 05:16:39;;;;;;;10.63;6.28;;;14.30;99.90;;;;;;4901936;29;20071;-86
2022/08/22 05:19:10;;;;;;;7.80;5.97;;;14.30;99.90;;;;;;4888207;29;20048;-83
2022/08/22 05:21:39;;;;;;;7.25;4.97;;;14.30;99.90;;;;;;4902244;29;20048;-83
2022/08/22 05:24:19;;;;;;;7.00;5.20;;;14.30;99.90;;;;;;4901677;29;20108;-85
2022/08/22 05:26:49;;;;;;;9.68;6.13;;;14.30;99.90;;;;;;4902348;29;20098;-83
2022/08/22 05:29:21;;;;;;;9.73;7.32;;;14.30;99.90;;;;;;4901275;29;20519;-84
2022/08/22 05:32:02;;;;;;;11.23;7.53;;;14.30;99.90;;;;;;4920333;29;20040;-87
2022/08/22 05:34:33;;;;;;;15.73;8.20;;;14.30;99.90;;;;;;4901567;29;20048;-83
2022/08/22 05:37:09;;;;;;;10.75;6.18;;;14.30;99.90;;;;;;4901937;29;20048;-84
2022/08/22 05:39:38;;;;;;;16.30;6.80;;;14.40;99.90;;;;;;4902373;29;20498;-83
2022/08/22 05:42:10;;;;;;;10.38;6.60;;;14.40;99.90;;;;;;4885361;29;20134;-87
2022/08/22 05:44:37;;;;;;;8.32;5.25;;;14.40;99.90;;;;;;4920629;29;20104;-88
2022/08/22 05:47:25;;;;;;;10.80;5.63;;;14.50;99.90;;;;;;4902162;29;20075;-86
2022/08/22 05:50:01;;;;;;;12.50;6.00;;;14.40;99.90;;;;;;4901587;29;20500;-87
2022/08/22 05:53:07;;;;;;;12.02;5.90;;;14.50;99.90;;;;;;4901048;29;20047;-87
2022/08/22 05:56:03;;;;;;;9.25;6.63;;;14.50;99.90;;;;;;4901237;29;20055;-88
2022/08/22 05:58:32;;;;;;;11.55;7.05;;;14.60;99.90;;;;;;4886753;29;20044;-86
2022/08/22 06:01:19;;;;;;;10.98;6.80;;;14.60;99.90;;;;;;4885584;29;20048;-87
2022/08/22 06:04:05;;;;;;;14.30;6.85;;;14.70;99.90;;;;;;4903205;29;20055;-87
2022/08/22 06:06:37;;;;;;;12.70;6.97;;;14.80;99.90;;;;;;4901185;29;20063;-87
2022/08/22 06:09:28;;;;;;;12.32;6.35;;;14.80;99.90;;;;;;4902759;29;20058;-86
2022/08/22 06:12:17;;;;;;;11.65;6.53;;;14.90;99.90;;;;;;4918969;29;20048;-87
2022/08/22 06:15:06;;;;;;;9.38;6.32;;;14.90;99.90;;;;;;4901833;29;20447;-88
2022/08/22 06:17:38;;;;;;;11.32;6.70;;;15.00;99.90;;;;;;4918840;29;20448;-86
2022/08/22 06:20:10;;;;;;;12.75;7.10;;;15.00;99.90;;;;;;4900951;29;20059;-88
2022/08/22 06:22:42;;;;;;;8.73;6.43;;;15.10;99.90;;;;;;4887237;29;20044;-86
2022/08/22 06:25:17;;;;;;;13.88;7.30;;;15.10;99.90;;;;;;4918400;29;20048;-89
2022/08/22 06:27:46;;;;;;;14.48;7.57;;;15.20;99.90;;;;;;4919454;29;20040;-86
2022/08/22 06:30:14;;;;;;;14.75;7.35;;;15.30;99.90;;;;;;4917895;29;20381;-87
2022/08/22 06:32:44;;;;;;;18.17;8.45;;;15.30;99.90;;;;;;4917666;29;20381;-88
2022/08/22 06:35:24;;;;;;;11.30;7.30;;;15.40;99.90;;;;;;4919592;29;20051;-87
2022/08/22 06:37:54;;;;;;;13.07;7.55;;;15.50;99.90;;;;;;4901474;29;20115;-87
2022/08/22 06:40:21;;;;;;;14.77;7.30;;;15.60;99.90;;;;;;4903661;29;20070;-87
2022/08/22 06:42:49;;;;;;;16.65;8.10;;;15.60;99.90;;;;;;4904525;29;20044;-86
2022/08/22 06:45:29;;;;;;;16.08;8.68;;;15.70;99.90;;;;;;4904544;29;20566;-86
2022/08/22 06:48:10;;;;;;;18.80;8.23;;;15.70;99.90;;;;;;4928960;29;20040;-86
2022/08/22 06:50:39;;;;;;;13.35;8.10;;;15.80;99.90;;;;;;4935522;29;20040;-86
2022/08/22 06:53:14;;;;;;;13.48;8.15;;;15.80;99.90;;;;;;4918755;29;20041;-87
2022/08/22 06:55:46;;;;;;;13.57;7.90;;;15.90;99.90;;;;;;4922904;29;20102;-90
2022/08/22 06:58:43;;;;;;;18.20;8.52;;;16.00;99.90;;;;;;4906671;29;20044;-86
2022/08/22 07:01:13;;;;;;;;;;;16.10;99.90;;;;;;4877687;29;20519;-87
2022/08/22 07:03:51;;;;;;;16.73;8.10;;;16.10;99.90;;;;;;4905012;29;19919;-87
2022/08/22 07:06:29;;;;;;;14.85;7.60;;;16.20;99.90;;;;;;4904521;29;20082;-90
2022/08/22 07:08:55;;;;;;;16.52;8.43;;;16.20;99.90;;;;;;4888462;29;20036;-87
2022/08/22 07:11:38;;;;;;;16.05;7.93;;;16.30;99.90;;;;;;4889666;29;20048;-87
2022/08/22 07:14:10;;;;;;;13.57;7.65;;;16.30;99.90;;;;;;4903884;29;20496;-87
2022/08/22 07:17:15;;;;;;;17.52;9.10;;;16.40;99.90;;;;;;4922486;29;20051;-87
2022/08/22 07:19:52;;;;;;;19.63;8.32;;;16.40;99.90;;;;;;4875757;29;20048;-87
2022/08/22 07:22:30;;;;;;;15.10;8.60;;;16.40;99.90;;;;;;4904940;29;20087;-87
2022/08/22 07:25:13;;;;;;;17.05;8.35;;;16.50;99.90;;;;;;4903680;29;20135;-88
2022/08/22 07:28:02;;;;;;;17.25;8.48;;;16.50;99.90;;;;;;4903141;29;20044;-87
2022/08/22 07:30:46;;;;;;;14.27;7.20;;;16.50;99.90;;;;;;4904768;29;20044;-87
2022/08/22 07:33:29;;;;;;;16.65;8.63;;;16.50;99.90;;;;;;4903736;29;20511;-87
2022/08/22 07:36:00;;;;;;;13.05;7.60;;;16.60;99.90;;;;;;4905130;29;20051;-88
2022/08/22 07:38:42;;;;;;;13.43;7.93;;;16.60;99.90;;;;;;4903681;29;20187;-89
2022/08/22 07:41:19;;;;;;;14.98;7.90;;;16.70;99.90;;;;;;4922457;29;20441;-87
2022/08/22 07:43:52;;;;;;;15.57;8.15;;;16.70;99.90;;;;;;4920596;29;20079;-87
2022/08/22 07:46:24;;;;;;;17.50;8.25;;;16.80;99.90;;;;;;4904293;29;20072;-85
2022/08/22 07:49:08;;;;;;;19.67;8.63;;;16.80;99.90;;;;;;4904679;29;20044;-86
2022/08/22 07:51:35;;;;;;;15.82;8.50;;;16.80;99.90;;;;;;4903012;29;20048;-88
2022/08/22 07:54:14;;;;;;;12.90;8.00;;;16.90;99.90;;;;;;4889135;29;20052;-88
2022/08/22 07:56:59;;;;;;;14.93;8.43;;;16.90;99.90;;;;;;4902997;29;20111;-88
2022/08/22 07:59:27;;;;;;;16.65;7.45;;;17.00;99.90;;;;;;4905663;29;20059;-88
2022/08/22 08:01:57;;;;;;;17.98;7.85;;;17.10;99.90;;;;;;4905821;29;20051;-86
2022/08/22 08:04:28;;;;;;;13.88;7.43;;;17.30;99.90;;;;;;4903607;29;20062;-86
2022/08/22 08:06:57;;;;;;;17.45;8.07;;;17.40;99.90;;;;;;4889475;29;20407;-87
2022/08/22 08:09:26;;;;;;;15.25;6.85;;;17.50;99.90;;;;;;4902816;29;20058;-88
2022/08/22 08:11:53;;;;;;;12.55;6.72;;;17.60;99.90;;;;;;4904636;29;20070;-88
2022/08/22 08:14:21;;;;;;;16.02;6.60;;;17.60;99.90;;;;;;4903634;29;20054;-87
2022/08/22 08:17:11;;;;;;;15.00;5.78;;;17.70;99.90;;;;;;4903743;29;20048;-85
2022/08/22 08:19:40;;;;;;;14.27;6.30;;;17.70;99.90;;;;;;4902572;29;20044;-87
2022/08/22 08:22:06;;;;;;;11.48;5.57;;;17.80;99.90;;;;;;4902520;29;20056;-88
2022/08/22 08:24:37;;;;;;;12.90;5.30;;;17.90;99.90;;;;;;4921282;29;20087;-88
2022/08/22 08:29:57;;;;;;;9.85;4.35;;;18.10;99.90;;;;;;4921799;29;20054;-86
2022/08/22 08:32:26;;;;;;;7.50;3.78;;;18.30;99.90;;;;;;4886569;29;20084;-90
2022/08/22 08:34:52;;;;;;;12.25;4.32;;;18.30;99.90;;;;;;4887440;29;20048;-88
2022/08/22 08:37:32;;;;;;;15.27;3.88;;;18.50;99.90;;;;;;4903503;29;20465;-85
2022/08/22 08:39:59;;;;;;;12.05;4.00;;;18.50;99.90;;;;;;4886908;29;20135;-85
2022/08/22 08:46:01;;;;;;;8.30;3.30;;;18.70;99.90;;;;;;4919291;29;20055;-88
2022/08/22 08:48:50;;;;;;;13.73;4.13;;;18.70;99.90;;;;;;4904102;29;20043;-87
2022/08/22 08:51:54;;;;;;;15.95;4.25;;;18.80;99.90;;;;;;4902218;29;20088;-88
2022/08/22 08:54:39;;;;;;;14.35;4.25;;;18.80;99.90;;;;;;4904497;29;20123;-87
2022/08/22 08:57:38;;;;;;;8.70;3.50;;;18.90;99.90;;;;;;4903104;29;20495;-87
2022/08/22 09:00:45;;;;;;;10.38;3.90;;;19.00;99.90;;;;;;4903210;29;20048;-88
2022/08/22 09:03:36;;;;;;;10.85;4.18;;;19.20;99.90;;;;;;4886815;29;20507;-87
2022/08/22 09:06:51;;;;;;;9.68;4.25;;;19.30;99.90;;;;;;4905517;29;20083;-84
2022/08/22 09:09:41;;;;;;;9.88;3.00;;;19.60;99.90;;;;;;4905624;29;20412;-85
2022/08/22 09:12:12;;;;;;;11.23;2.75;;;19.80;99.90;;;;;;4905691;29;20046;-86
2022/08/22 09:15:10;;;;;;;12.73;3.58;;;20.00;99.90;;;;;;4904900;29;20481;-84
2022/08/22 09:18:01;;;;;;;9.07;2.40;;;20.20;99.90;;;;;;4904124;29;20100;-84
2022/08/22 09:20:46;;;;;;;9.07;2.53;;;20.40;99.90;;;;;;4904055;29;20058;-87
2022/08/22 09:23:40;;;;;;;6.22;2.40;;;20.50;99.90;;;;;;4886426;29;20044;-89
2022/08/22 09:26:28;;;;;;;8.63;2.20;;;20.70;99.90;;;;;;4919502;29;20046;-86
2022/08/22 09:29:31;;;;;;;13.32;2.33;;;20.90;99.90;;;;;;4918771;29;20367;-88
2022/08/22 09:32:35;;;;;;;7.50;1.90;;;21.10;99.90;;;;;;4918924;29;20093;-89
2022/08/22 09:35:25;;;;;;;8.63;2.30;;;21.20;99.90;;;;;;4829886;29;20093;-86
2022/08/22 09:38:12;;;;;;;8.18;2.10;;;21.10;99.90;;;;;;4899402;29;20395;-89
2022/08/22 09:40:58;;;;;;;10.10;2.20;;;21.10;99.90;;;;;;4901892;29;20103;-88
2022/08/22 09:43:37;;;;;;;11.50;2.80;;;21.10;99.90;;;;;;4901125;29;20116;-88
2022/08/22 09:46:30;;;;;;;8.23;2.20;;;21.20;99.90;;;;;;4885813;29;20604;-88
2022/08/22 09:49:31;;;;;;;8.55;2.28;;;21.10;99.90;;;;;;4902313;29;20088;-85
2022/08/22 09:52:41;;;;;;;9.80;2.10;;;21.20;99.90;;;;;;4918023;29;20124;-86
2022/08/22 09:55:40;;;;;;;7.18;2.20;;;21.20;99.90;;;;;;4901242;29;20052;-88
2022/08/22 09:58:16;;;;;;;6.82;1.77;;;21.20;99.90;;;;;;4885899;29;20048;-87
2022/08/22 10:01:18;;;;;;;6.10;1.90;;;21.20;99.90;;;;;;4885338;29;20059;-87
2022/08/22 10:04:14;;;;;;;7.05;1.90;;;21.40;99.90;;;;;;4867919;29;20066;-87
2022/08/22 10:07:00;;;;;;;5.15;1.70;;;21.60;99.90;;;;;;4900635;29;20044;-87
2022/08/22 10:09:40;;;;;;;8.38;1.70;;;21.80;99.90;;;;;;4901342;29;20055;-88
2022/08/22 10:12:11;;;;;;;7.50;1.80;;;21.90;99.90;;;;;;4918443;29;20127;-86
2022/08/22 10:15:01;;;;;;;7.68;1.98;;;22.10;99.90;;;;;;4901825;29;20047;-87
2022/08/22 10:17:31;;;;;;;7.28;1.83;;;22.30;99.90;;;;;;4885810;29;20048;-87
2022/08/22 10:20:12;;;;;;;9.07;1.90;;;22.50;99.90;;;;;;4885628;29;20055;-87
2022/08/22 10:22:47;;;;;;;7.68;1.85;;;22.70;99.90;;;;;;4917951;29;20070;-86
2022/08/22 10:25:32;;;;;;;6.40;1.83;;;22.80;99.90;;;;;;4901211;29;20051;-88
2022/08/22 10:28:36;;;;;;;8.80;1.90;;;23.00;99.90;;;;;;4900377;29;20079;-86
2022/08/22 10:31:30;;;;;;;7.07;1.80;;;23.20;99.90;;;;;;4905189;29;20063;-87
2022/08/22 10:34:04;;;;;;;10.90;2.42;;;23.30;99.90;;;;;;4921979;29;20044;-88
2022/08/22 10:37:08;;;;;;;8.10;1.90;;;23.50;99.90;;;;;;4904658;29;20044;-89
2022/08/22 10:39:45;;;;;;;6.25;1.80;;;23.60;99.90;;;;;;4889055;29;20048;-88
2022/08/22 10:42:44;;;;;;;7.47;2.00;;;23.90;99.90;;;;;;4904430;29;20373;-86
2022/08/22 10:45:31;;;;;;;7.63;1.90;;;23.90;99.90;;;;;;4889308;29;20055;-88
2022/08/22 10:47:57;;;;;;;6.35;1.95;;;24.00;99.90;;;;;;4888600;29;20052;-87
2022/08/22 10:50:29;;;;;;;11.20;2.55;;;24.00;99.90;;;;;;4904668;29;20051;-87
2022/08/22 10:55:55;;;;;;;7.47;2.22;;;24.30;99.90;;;;;;4904004;29;20056;-86
2022/08/22 10:58:27;;;;;;;8.38;1.73;;;24.30;99.90;;;;;;4904800;29;20087;-88
2022/08/22 11:00:57;;;;;;;5.95;1.65;;;24.40;99.90;;;;;;4904330;29;20048;-86
2022/08/22 11:03:46;;;;;;;6.88;1.77;;;24.40;99.90;;;;;;4888561;29;20528;-88
2022/08/22 11:06:38;;;;;;;6.60;1.92;;;24.60;99.90;;;;;;4881196;29;20372;-87
2022/08/22 11:09:17;;;;;;;11.07;2.30;;;24.70;99.90;;;;;;4920730;29;20047;-84
2022/08/22 11:11:52;;;;;;;7.28;2.28;;;24.70;99.90;;;;;;4903586;29;20055;-81
2022/08/22 11:14:33;;;;;;;7.13;1.90;;;24.70;99.90;;;;;;4888005;29;20044;-83
2022/08/22 11:17:41;;;;;;;5.38;1.50;;;24.50;99.90;;;;;;4903911;29;20047;-85
2022/08/22 11:20:42;;;;;;;9.18;1.80;;;24.30;99.90;;;;;;4903351;29;20048;-86
2022/08/22 11:23:39;;;;;;;6.68;1.83;;;24.20;99.90;;;;;;4903834;29;20511;-85
2022/08/22 11:26:23;;;;;;;5.70;1.70;;;24.20;99.90;;;;;;4887329;29;20052;-85
2022/08/22 11:29:16;;;;;;;7.25;2.20;;;24.20;99.90;;;;;;4887624;29;20043;-84
2022/08/22 11:32:03;;;;;;;5.63;1.60;;;24.40;99.90;;;;;;4887554;29;20135;-86
2022/08/22 11:34:59;;;;;;;6.50;1.50;;;24.60;99.90;;;;;;4904015;29;20048;-85
2022/08/22 11:37:34;;;;;;;6.43;1.70;;;24.70;99.90;;;;;;4903431;29;20083;-83
2022/08/22 11:40:09;;;;;;;7.65;1.70;;;24.90;99.90;;;;;;4902031;29;20059;-83
2022/08/22 11:42:59;;;;;;;4.90;1.50;;;25.20;99.90;;;;;;4902998;29;20548;-83
2022/08/22 11:45:30;;;;;;;7.25;1.85;;;25.30;99.90;;;;;;4903829;29;20048;-86
2022/08/22 11:48:07;;;;;;;5.32;1.80;;;25.40;99.90;;;;;;4920175;29;20044;-87
2022/08/22 11:50:47;;;;;;;9.02;2.10;;;25.60;99.60;;;;;;4887266;29;20044;-83
2022/08/22 11:53:38;;;;;;;5.25;1.50;;;25.50;99.10;;;;;;4903866;29;20103;-87
2022/08/22 11:56:18;;;;;;;7.80;1.70;;;25.60;99.90;;;;;;4902836;29;20044;-86
2022/08/22 11:59:02;;;;;;;6.28;1.80;;;25.60;99.10;;;;;;4920397;29;20376;-86
2022/08/22 12:01:49;;;;;;;5.37;1.70;;;25.70;98.30;;;;;;4902535;29;20504;-86
2022/08/22 12:04:36;;;;;;;7.82;1.80;;;25.80;98.70;;;;;;4903329;29;20104;-83
2022/08/22 12:07:17;;;;;;;9.43;2.08;;;25.60;98.40;;;;;;4902921;29;20401;-85
2022/08/22 12:09:45;;;;;;;7.75;1.65;;;25.40;97.10;;;;;;4902335;29;20066;-84
2022/08/22 12:12:25;;;;;;;7.60;2.30;;;25.30;97.50;;;;;;4902736;29;20048;-83
2022/08/22 12:15:07;;;;;;;6.78;1.70;;;25.30;97.40;;;;;;4902989;29;20099;-85
2022/08/22 12:17:51;;;;;;;6.72;1.60;;;25.30;97.30;;;;;;4887961;29;20088;-85
2022/08/22 12:20:32;;;;;;;5.82;1.42;;;25.40;98.10;;;;;;4903650;29;20507;-87
2022/08/22 12:23:32;;;;;;;5.78;1.60;;;25.70;99.90;;;;;;4903186;29;20055;-84
2022/08/22 12:26:08;;;;;;;7.45;1.73;;;25.80;97.90;;;;;;4903263;29;20464;-86
2022/08/22 12:29:00;;;;;;;6.95;1.65;;;25.90;97.40;;;;;;4902761;29;20172;-84
2022/08/22 12:31:41;;;;;;;6.47;1.73;;;26.10;97.60;;;;;;4886656;29;20092;-82
2022/08/22 12:34:34;;;;;;;9.65;2.00;;;26.20;97.10;;;;;;4887208;29;20412;-85
2022/08/22 12:37:19;;;;;;;4.30;1.60;;;26.30;97.80;;;;;;4902612;29;20055;-85
2022/08/22 12:39:50;;;;;;;9.40;1.77;;;26.40;96.30;;;;;;4902158;29;20062;-86
2022/08/22 12:43:07;;;;;;;6.85;2.20;;;26.40;96.10;;;;;;4902651;29;20072;-86
2022/08/22 12:45:48;;;;;;;4.75;1.77;;;26.40;95.80;;;;;;4879222;29;20515;-86
2022/08/22 12:48:32;;;;;;;9.43;2.13;;;26.30;96.00;;;;;;4886376;29;20127;-85
2022/08/22 12:51:21;;;;;;;10.15;2.15;;;26.20;96.40;;;;;;4901724;29;20047;-84
2022/08/22 12:53:56;;;;;;;9.68;2.15;;;26.20;97.60;;;;;;4876225;29;20087;-84
2022/08/22 12:56:42;;;;;;;7.03;2.10;;;26.40;95.70;;;;;;4902349;29;20130;-85
2022/08/22 12:59:31;;;;;;;6.70;2.10;;;26.50;96.70;;;;;;4903685;29;20044;-86
2022/08/22 13:02:00;;;;;;;6.78;1.98;;;26.60;96.70;;;;;;4902631;29;20154;-86
2022/08/22 13:04:30;;;;;;;6.93;1.90;;;26.40;96.40;;;;;;4902410;29;20048;-85
2022/08/22 13:07:21;;;;;;;7.75;2.25;;;26.20;96.10;;;;;;4919046;29;20117;-86
2022/08/22 13:09:59;;;;;;;8.02;2.00;;;26.00;96.10;;;;;;4918223;29;20510;-84
2022/08/22 13:12:39;;;;;;;9.77;2.28;;;25.70;96.90;;;;;;4901679;29;20127;-87
2022/08/22 13:15:34;;;;;;;6.80;2.17;;;25.60;97.80;;;;;;4902046;29;20044;-85
2022/08/22 13:18:05;;;;;;;7.72;2.38;;;25.50;98.60;;;;;;4901095;29;20122;-85
2022/08/22 13:20:35;;;;;;;7.75;1.92;;;25.50;97.90;;;;;;4900941;29;20120;-86
2022/08/22 13:23:21;;;;;;;11.05;2.33;;;25.60;97.50;;;;;;4885650;29;20044;-80
2022/08/22 13:26:02;;;;;;;6.95;2.08;;;25.50;96.60;;;;;;4902295;29;20139;-84
2022/08/22 13:28:32;;;;;;;6.82;2.05;;;25.40;95.30;;;;;;4902300;29;20048;-86
2022/08/22 13:30:59;;;;;;;5.22;1.70;;;25.40;95.70;;;;;;4900754;29;20500;-86
2022/08/22 13:33:33;;;;;;;9.63;2.00;;;25.40;96.90;;;;;;4918043;29;20040;-86
2022/08/22 13:36:08;;;;;;;6.63;2.28;;;25.50;98.00;;;;;;4885286;29;20056;-85
2022/08/22 13:38:45;;;;;;;;;;;25.40;98.60;;;;;;4900948;29;20039;-86
2022/08/22 13:41:17;;;;;;;6.75;2.00;;;25.40;99.90;;;;;;4901086;29;19919;-85
2022/08/22 13:43:56;;;;;;;5.85;2.10;;;25.30;99.90;;;;;;4901230;29;20063;-86
2022/08/22 13:46:26;;;;;;;5.97;1.85;;;25.30;99.90;;;;;;4901171;29;20556;-84
2022/08/22 13:48:54;;;;;;;7.72;2.38;;;25.40;99.90;;;;;;4900548;29;20218;-85
2022/08/22 13:51:27;;;;;;;6.68;2.17;;;25.40;99.80;;;;;;4885302;29;20056;-85
2022/08/22 13:54:21;;;;;;;6.00;2.33;;;25.40;99.40;;;;;;4901034;29;20099;-85
2022/08/22 13:57:15;;;;;;;8.23;2.10;;;25.40;98.80;;;;;;4885281;29;20048;-86
2022/08/22 13:59:46;;;;;;;7.43;1.98;;;25.30;99.30;;;;;;4918227;29;20048;-86
2022/08/22 14:02:40;;;;;;;5.95;2.05;;;25.20;99.40;;;;;;4884732;29;20056;-85
2022/08/22 14:05:39;;;;;;;5.40;1.63;;;25.20;98.40;;;;;;4897976;29;20064;-88
2022/08/22 14:08:23;;;;;;;7.65;1.98;;;25.30;98.20;;;;;;4899606;29;20121;-85
2022/08/22 14:10:59;;;;;;;4.82;1.80;;;25.50;98.10;;;;;;4889022;29;20051;-83
2022/08/22 14:13:45;;;;;;;7.13;2.40;;;25.70;98.60;;;;;;4904867;29;20082;-85
2022/08/22 14:16:26;;;;;;;7.45;1.90;;;25.70;98.90;;;;;;4904581;29;20478;-85
2022/08/22 14:18:57;;;;;;;6.32;2.30;;;25.60;99.20;;;;;;4905005;29;20040;-87
2022/08/22 14:21:35;;;;;;;8.88;2.20;;;25.50;99.00;;;;;;4904718;29;20048;-84
2022/08/22 14:24:08;;;;;;;7.72;2.28;;;25.40;99.80;;;;;;4904787;29;20059;-86
2022/08/22 14:26:37;;;;;;;6.80;2.35;;;25.30;99.90;;;;;;4921686;29;20084;-85
2022/08/22 14:29:15;;;;;;;8.80;2.10;;;25.20;99.60;;;;;;4921145;29;20075;-85
2022/08/22 14:31:53;;;;;;;7.25;2.22;;;25.20;98.70;;;;;;4904246;29;20052;-84
2022/08/22 14:34:20;;;;;;;8.65;2.05;;;25.30;98.60;;;;;;4888655;29;20107;-86
2022/08/22 14:36:53;;;;;;;5.25;2.05;;;25.30;98.10;;;;;;4903892;29;20051;-85
2022/08/22 14:39:32;;;;;;;5.60;1.95;;;25.20;96.90;;;;;;4888857;29;20052;-86
2022/08/22 14:42:11;;;;;;;6.28;2.00;;;25.10;95.60;;;;;;4904394;29;20401;-86
2022/08/22 14:45:07;;;;;;;6.63;2.00;;;25.20;96.60;;;;;;4904389;29;20396;-86
2022/08/22 14:47:40;;;;;;;4.43;1.80;;;25.50;95.10;;;;;;4904382;29;20052;-85
2022/08/22 14:50:28;;;;;;;5.43;1.95;;;25.50;95.00;;;;;;4922082;29;20056;-85
2022/08/22 14:53:06;;;;;;;6.05;2.13;;;25.50;96.00;;;;;;4940080;29;20104;-86
2022/08/22 14:55:32;;;;;;;6.93;2.08;;;25.50;96.70;;;;;;4909105;29;20043;-83
2022/08/22 14:58:03;;;;;;;10.15;1.90;;;25.70;96.50;;;;;;4910725;29;20381;-86
2022/08/22 15:00:33;;;;;;;7.30;1.70;;;25.60;95.20;;;;;;4905123;29;20036;-86
2022/08/22 15:03:31;;;;;;;6.22;2.13;;;25.50;95.30;;;;;;4905162;29;20059;-86
2022/08/22 15:06:09;;;;;;;7.00;2.20;;;25.50;96.50;;;;;;4893236;29;20062;-85
2022/08/22 15:08:39;;;;;;;9.77;2.30;;;25.50;95.60;;;;;;4904010;29;20055;-84
2022/08/22 15:11:10;;;;;;;8.75;2.20;;;25.50;94.90;;;;;;4887687;29;20128;-86
2022/08/22 15:13:39;;;;;;;9.82;2.28;;;25.50;94.80;;;;;;4887717;29;20132;-84
2022/08/22 15:16:18;;;;;;;6.97;2.30;;;25.50;94.50;;;;;;4903845;29;20054;-86
2022/08/22 15:18:44;;;;;;;6.15;1.80;;;25.50;94.90;;;;;;4903412;29;20051;-84
2022/08/22 15:21:21;;;;;;;5.57;1.90;;;25.50;95.40;;;;;;4903483;29;20044;-86
2022/08/22 15:23:48;;;;;;;6.22;2.15;;;25.60;95.40;;;;;;4887625;29;20076;-86
2022/08/22 15:26:28;;;;;;;6.10;1.83;;;25.60;95.20;;;;;;4903445;29;20044;-85
2022/08/22 15:29:23;;;;;;;6.90;1.92;;;25.80;95.70;;;;;;4887566;29;20547;-86
2022/08/22 15:31:55;;;;;;;6.47;1.77;;;25.90;94.90;;;;;;4902951;29;20076;-87
2022/08/22 15:34:31;;;;;;;5.35;2.10;;;26.10;95.10;;;;;;4903067;29;20079;-86
2022/08/22 15:36:58;;;;;;;8.40;2.45;;;26.20;94.60;;;;;;4903137;29;20469;-85
2022/08/22 15:39:36;;;;;;;8.13;2.35;;;26.40;93.60;;;;;;4902652;29;20556;-86
2022/08/22 15:42:03;;;;;;;5.55;2.20;;;26.40;93.10;;;;;;4902976;29;20048;-85
2022/08/22 15:44:37;;;;;;;6.57;1.98;;;26.40;92.40;;;;;;4902871;29;20131;-86
2022/08/22 15:47:24;;;;;;;5.20;2.17;;;26.40;92.00;;;;;;4903532;29;20048;-88
2022/08/22 15:49:54;;;;;;;6.20;2.20;;;26.30;92.20;;;;;;4902861;29;20063;-86
2022/08/22 15:52:30;;;;;;;5.60;2.20;;;26.20;92.10;;;;;;4902859;29;20489;-85
2022/08/22 15:55:19;;;;;;;6.20;2.10;;;26.20;91.80;;;;;;4887095;29;20044;-85
2022/08/22 15:57:58;;;;;;;5.97;1.83;;;26.20;92.70;;;;;;4903635;29;20143;-85
2022/08/22 16:00:42;;;;;;;7.65;2.08;;;26.20;92.30;;;;;;4902640;29;20127;-86
2022/08/22 16:03:25;;;;;;;7.70;2.70;;;26.20;92.50;;;;;;4902326;29;20052;-85
2022/08/22 16:05:57;;;;;;;7.07;2.10;;;26.10;93.20;;;;;;4902482;29;20052;-86
2022/08/22 16:08:35;;;;;;;5.28;2.30;;;26.30;93.20;;;;;;4919215;29;20044;-86
2022/08/22 16:11:00;;;;;;;6.05;1.70;;;26.40;92.60;;;;;;4886800;29;20127;-85
2022/08/22 16:13:26;;;;;;;5.63;1.92;;;26.50;92.10;;;;;;4902457;29;20500;-85
2022/08/22 16:15:57;;;;;;;5.85;3.00;;;26.50;91.80;;;;;;4902320;29;20366;-85
2022/08/22 16:18:32;;;;;;;5.55;2.28;;;26.40;91.90;;;;;;4902219;29;20175;-84
2022/08/22 16:21:12;;;;;;;7.50;2.13;;;26.20;90.70;;;;;;4901946;29;20048;-84
2022/08/22 16:23:53;;;;;;;8.23;3.22;;;26.00;91.10;;;;;;4902406;29;20092;-84
2022/08/22 16:26:20;;;;;;;9.25;3.08;;;25.80;92.60;;;;;;4901735;29;20445;-83
2022/08/22 16:28:53;;;;;;;9.02;2.28;;;25.80;92.60;;;;;;4901829;29;20128;-84
2022/08/22 16:31:30;;;;;;;6.15;2.58;;;25.70;92.70;;;;;;4885976;29;20048;-84
2022/08/22 16:34:17;;;;;;;7.95;2.33;;;25.60;92.90;;;;;;4886367;29;20526;-86
2022/08/22 16:37:04;;;;;;;6.72;2.20;;;25.60;92.30;;;;;;4919134;29;20040;-87
2022/08/22 16:39:44;;;;;;;6.28;2.10;;;25.50;92.70;;;;;;4902663;29;20096;-85
2022/08/22 16:42:22;;;;;;;8.50;2.78;;;25.40;93.10;;;;;;4901353;29;20056;-85
2022/08/22 16:45:07;;;;;;;4.78;1.90;;;25.40;93.10;;;;;;4886898;29;20123;-86
2022/08/22 16:47:32;;;;;;;9.82;2.22;;;25.40;93.30;;;;;;4886303;29;20444;-85
2022/08/22 16:50:08;;;;;;;6.20;2.13;;;25.40;94.10;;;;;;4901677;29;20044;-87
2022/08/22 16:52:49;;;;;;;5.43;1.98;;;25.40;94.20;;;;;;4901547;29;20470;-86
2022/08/22 16:55:30;;;;;;;5.75;1.70;;;25.30;93.50;;;;;;4901692;29;20119;-86
2022/08/22 16:58:05;;;;;;;8.25;2.10;;;25.20;93.40;;;;;;4886129;29;20051;-86
2022/08/22 17:00:36;;;;;;;;;;;25.10;92.50;;;;;;4901841;29;20044;-86